Time;durP1;ratioP1;P1;durP2;ratioP2;P2;SDS_P1;SDS_P2;PMS_P1;PMS_P2;Temp;Humidity;BMP_temperature;BMP_pressure;BME280_temperature;BME280_humidity;BME280_pressure;Samples;Min_cycle;Max_cycle;Signal;HPM_P1;HPM_P2
2022/08/16 00:00:23;;;;;;;34.65;26.30;;;20.10;99.90;;;;;;5050146;28;20094;-67
2022/08/16 00:03:08;;;;;;;34.33;25.40;;;20.10;99.90;;;;;;5064133;28;20045;-67
2022/08/16 00:05:34;;;;;;;30.83;25.70;;;20.10;99.90;;;;;;5049271;28;20045;-67
2022/08/16 00:08:00;;;;;;;33.78;26.20;;;20.00;99.90;;;;;;5049658;28;20052;-67
2022/08/16 00:10:31;;;;;;;36.00;26.88;;;20.10;99.90;;;;;;5047511;28;20033;-67
2022/08/16 00:12:58;;;;;;;35.60;27.13;;;20.10;99.90;;;;;;5047828;28;20506;-68
2022/08/16 00:15:34;;;;;;;34.50;26.73;;;20.10;99.90;;;;;;5050210;28;20033;-68
2022/08/16 00:18:00;;;;;;;33.63;25.50;;;20.10;99.90;;;;;;5049740;28;20040;-68
2022/08/16 00:20:26;;;;;;;33.55;26.23;;;20.00;99.90;;;;;;5054745;28;20048;-68
2022/08/16 00:22:51;;;;;;;34.50;26.63;;;20.10;99.90;;;;;;5048757;28;20049;-68
2022/08/16 00:25:20;;;;;;;32.45;26.52;;;20.10;99.90;;;;;;5049920;28;20029;-67
2022/08/16 00:27:46;;;;;;;33.17;26.55;;;20.10;99.90;;;;;;5047313;28;20048;-67
2022/08/16 00:30:14;;;;;;;34.45;26.00;;;20.00;99.90;;;;;;5050224;28;20094;-67
2022/08/16 00:32:43;;;;;;;28.92;23.83;;;20.10;99.90;;;;;;5049772;28;20048;-67
2022/08/16 00:35:13;;;;;;;31.33;24.90;;;20.10;99.90;;;;;;5049354;28;20079;-67
2022/08/16 00:37:39;;;;;;;29.60;23.85;;;20.10;99.90;;;;;;5047669;28;20048;-68
2022/08/16 00:40:07;;;;;;;31.95;24.45;;;20.10;99.90;;;;;;5045908;28;20042;-67
2022/08/16 00:42:33;;;;;;;31.90;24.73;;;20.00;99.90;;;;;;5048497;28;20090;-67
2022/08/16 00:45:22;;;;;;;32.90;25.33;;;20.00;99.90;;;;;;5044922;28;20051;-67
2022/08/16 00:47:49;;;;;;;30.30;25.75;;;20.10;99.90;;;;;;5061119;28;20049;-67
2022/08/16 00:50:15;;;;;;;31.83;25.00;;;20.10;99.90;;;;;;5046217;28;20063;-67
2022/08/16 00:52:40;;;;;;;33.55;24.63;;;20.10;99.90;;;;;;5048839;28;20045;-67
2022/08/16 00:55:06;;;;;;;33.45;24.88;;;20.10;99.90;;;;;;5046601;28;20365;-67
2022/08/16 00:57:34;;;;;;;34.53;24.90;;;20.00;99.90;;;;;;5046688;28;20041;-67
2022/08/16 01:00:00;;;;;;;29.20;25.02;;;20.00;99.90;;;;;;5043647;28;20063;-67
2022/08/16 01:02:26;;;;;;;32.67;24.65;;;20.00;99.90;;;;;;5047122;28;20072;-67
2022/08/16 01:04:52;;;;;;;34.05;25.80;;;20.00;99.90;;;;;;5057404;28;20049;-67
2022/08/16 01:08:01;;;;;;;36.15;25.08;;;20.00;99.90;;;;;;5041195;28;20383;-67
2022/08/16 01:10:30;;;;;;;33.47;25.33;;;20.00;99.90;;;;;;5045151;28;20123;-67
2022/08/16 01:12:56;;;;;;;33.72;25.88;;;20.00;99.90;;;;;;5045162;28;20041;-68
2022/08/16 01:15:22;;;;;;;36.60;27.65;;;20.00;99.90;;;;;;5043254;28;20143;-67
2022/08/16 01:17:48;;;;;;;37.13;27.65;;;20.00;99.90;;;;;;5043380;28;20041;-67
2022/08/16 01:20:17;;;;;;;35.65;26.60;;;20.00;99.90;;;;;;5039858;28;20495;-67
2022/08/16 01:23:00;;;;;;;37.60;26.83;;;20.00;99.90;;;;;;5044987;28;20067;-67
2022/08/16 01:25:35;;;;;;;34.97;26.10;;;19.90;99.90;;;;;;5041141;28;20128;-67
2022/08/16 01:28:14;;;;;;;33.17;25.42;;;19.90;99.90;;;;;;5042087;28;20162;-67
2022/08/16 01:30:43;;;;;;;34.30;26.52;;;19.90;99.90;;;;;;5040300;28;20511;-66
2022/08/16 01:33:09;;;;;;;34.25;26.38;;;19.90;99.90;;;;;;5038922;28;20511;-67
2022/08/16 01:35:46;;;;;;;32.30;25.48;;;19.80;99.90;;;;;;5042000;28;20103;-66
2022/08/16 01:38:31;;;;;;;36.63;26.95;;;19.90;99.90;;;;;;5059452;28;20033;-66
2022/08/16 01:41:02;;;;;;;36.35;27.05;;;19.80;99.90;;;;;;5043683;28;20037;-67
2022/08/16 01:43:30;;;;;;;36.13;25.77;;;19.90;99.90;;;;;;5040875;28;20049;-67
2022/08/16 01:45:58;;;;;;;34.00;26.30;;;19.80;99.90;;;;;;5044753;28;20045;-66
2022/08/16 01:48:29;;;;;;;36.75;28.15;;;19.70;99.90;;;;;;5040069;28;20178;-67
2022/08/16 01:50:55;;;;;;;36.55;26.58;;;19.70;99.90;;;;;;5045609;28;20045;-66
2022/08/16 01:53:22;;;;;;;33.10;25.98;;;19.80;99.90;;;;;;5042852;28;20472;-66
2022/08/16 01:55:48;;;;;;;33.70;26.05;;;19.70;99.90;;;;;;5043411;28;20186;-66
2022/08/16 01:58:15;;;;;;;34.95;27.45;;;19.60;99.90;;;;;;5039262;28;20634;-67
2022/08/16 02:00:41;;;;;;;32.33;25.83;;;19.60;99.90;;;;;;5042198;28;20095;-67
2022/08/16 02:03:07;;;;;;;34.65;26.67;;;19.60;99.90;;;;;;5057742;28;20143;-67
2022/08/16 02:05:33;;;;;;;34.35;25.98;;;19.50;99.90;;;;;;5042893;28;20417;-67
2022/08/16 02:07:58;;;;;;;32.30;24.75;;;19.50;99.90;;;;;;5045072;28;20116;-67
2022/08/16 02:10:25;;;;;;;30.85;24.33;;;19.50;99.90;;;;;;5044297;28;20110;-67
2022/08/16 02:12:50;;;;;;;34.75;24.30;;;19.40;99.90;;;;;;5043526;28;20055;-67
2022/08/16 02:15:19;;;;;;;31.45;24.58;;;19.40;99.90;;;;;;5046146;28;20041;-67
2022/08/16 02:17:45;;;;;;;31.63;24.33;;;19.40;99.90;;;;;;5044161;28;20041;-67
2022/08/16 02:20:11;;;;;;;31.10;24.45;;;19.30;99.90;;;;;;5058524;28;20043;-67
2022/08/16 02:22:36;;;;;;;31.63;25.05;;;19.20;99.90;;;;;;5042824;28;20150;-67
2022/08/16 02:25:12;;;;;;;35.53;24.95;;;19.30;99.90;;;;;;5059559;28;20051;-66
2022/08/16 02:27:40;;;;;;;32.53;24.70;;;19.20;99.90;;;;;;5045224;28;20133;-67
2022/08/16 02:30:11;;;;;;;33.75;25.95;;;19.10;99.90;;;;;;5055629;28;20044;-66
2022/08/16 02:32:36;;;;;;;33.75;25.80;;;19.10;99.90;;;;;;5040014;28;20116;-67
2022/08/16 02:35:03;;;;;;;35.20;24.67;;;19.10;99.90;;;;;;5043094;28;20171;-67
2022/08/16 02:37:28;;;;;;;33.03;24.15;;;19.00;99.90;;;;;;5038175;28;20045;-67
2022/08/16 02:39:55;;;;;;;37.55;24.73;;;19.00;99.90;;;;;;5040831;28;20408;-67
2022/08/16 02:42:21;;;;;;;32.55;25.17;;;18.90;99.90;;;;;;5041485;28;20190;-67
2022/08/16 02:44:46;;;;;;;31.65;25.23;;;19.00;99.90;;;;;;5043445;28;20123;-67
2022/08/16 02:47:12;;;;;;;32.80;24.00;;;18.80;99.90;;;;;;5021755;28;20593;-67
2022/08/16 02:49:37;;;;;;;36.35;24.90;;;18.80;99.90;;;;;;5039947;28;20090;-67
2022/08/16 02:52:03;;;;;;;28.73;23.88;;;18.90;99.90;;;;;;5042385;28;20392;-67
2022/08/16 02:54:29;;;;;;;28.52;23.27;;;18.80;99.90;;;;;;5044006;28;20039;-67
2022/08/16 02:56:55;;;;;;;31.02;22.60;;;18.80;99.90;;;;;;5045236;28;20437;-66
2022/08/16 02:59:21;;;;;;;37.03;24.73;;;18.80;99.90;;;;;;5044884;28;20029;-67
2022/08/16 03:01:46;;;;;;;31.67;23.83;;;18.80;99.90;;;;;;5043500;28;20045;-67
2022/08/16 03:04:12;;;;;;;32.35;23.80;;;18.70;99.90;;;;;;5044337;28;20037;-67
2022/08/16 03:06:37;;;;;;;30.70;22.77;;;18.70;99.90;;;;;;5041183;28;20462;-67
2022/08/16 03:09:04;;;;;;;30.63;22.83;;;18.70;99.90;;;;;;5043610;28;20056;-67
2022/08/16 03:11:31;;;;;;;29.60;21.83;;;18.70;99.90;;;;;;5040821;28;20041;-67
2022/08/16 03:13:57;;;;;;;27.73;21.20;;;18.60;99.90;;;;;;5039606;28;20037;-67
2022/08/16 03:16:23;;;;;;;29.10;21.02;;;18.50;99.90;;;;;;5043702;28;20045;-67
2022/08/16 03:18:53;;;;;;;29.65;21.75;;;18.50;99.90;;;;;;5061560;28;20560;-67
2022/08/16 03:21:20;;;;;;;29.50;21.05;;;18.50;99.90;;;;;;5045647;28;20044;-67
2022/08/16 03:23:46;;;;;;;29.02;21.95;;;18.40;99.90;;;;;;5048519;28;20147;-67
2022/08/16 03:26:12;;;;;;;28.52;21.75;;;18.40;99.90;;;;;;5047941;28;20071;-67
2022/08/16 03:28:39;;;;;;;26.25;21.42;;;18.40;99.90;;;;;;5047263;28;20065;-67
2022/08/16 03:35:06;;;;;;;32.55;23.83;;;18.30;99.90;;;;;;5050279;28;20082;-67
2022/08/16 03:37:32;;;;;;;28.55;23.08;;;18.20;99.90;;;;;;5050612;28;20037;-67
2022/08/16 03:40:25;;;;;;;30.58;22.92;;;18.20;99.90;;;;;;5049845;28;20545;-67
2022/08/16 03:42:50;;;;;;;;;;;18.10;99.90;;;;;;5048271;28;20053;-67
2022/08/16 03:45:17;;;;;;;34.97;24.38;;;18.00;99.90;;;;;;5047680;28;20046;-67
2022/08/16 03:47:46;;;;;;;32.92;23.58;;;18.10;99.90;;;;;;5053740;28;20044;-67
2022/08/16 03:50:13;;;;;;;33.90;24.48;;;17.90;99.90;;;;;;5038831;28;20032;-67
2022/08/16 03:52:40;;;;;;;34.83;24.42;;;18.00;99.90;;;;;;5048249;28;20037;-67
2022/08/16 03:55:23;;;;;;;32.70;24.38;;;18.00;99.90;;;;;;5051107;28;20041;-67
2022/08/16 03:57:50;;;;;;;30.80;23.48;;;17.90;99.90;;;;;;5050344;28;20029;-67
2022/08/16 04:00:20;;;;;;;32.50;24.27;;;17.90;99.90;;;;;;5049517;28;20040;-67
2022/08/16 04:02:46;;;;;;;31.08;22.50;;;17.80;99.90;;;;;;5049794;28;20128;-67
2022/08/16 04:05:15;;;;;;;29.98;22.75;;;17.90;99.90;;;;;;5051767;28;20119;-67
2022/08/16 04:07:41;;;;;;;30.15;22.15;;;17.80;99.90;;;;;;5049903;28;20561;-67
2022/08/16 04:10:09;;;;;;;30.52;22.38;;;17.80;99.90;;;;;;5047729;28;20045;-67
2022/08/16 04:12:35;;;;;;;30.08;22.75;;;17.70;99.90;;;;;;5057593;28;20442;-67
2022/08/16 04:15:01;;;;;;;32.88;24.02;;;17.70;99.90;;;;;;5051786;28;20508;-67
2022/08/16 04:17:28;;;;;;;33.63;23.50;;;17.70;99.90;;;;;;5049998;28;20045;-67
2022/08/16 04:20:12;;;;;;;32.53;24.35;;;17.60;99.90;;;;;;5050578;28;20037;-67
2022/08/16 04:22:38;;;;;;;34.80;24.02;;;17.50;99.90;;;;;;5065544;28;20394;-67
2022/08/16 04:25:05;;;;;;;35.00;25.13;;;17.50;99.90;;;;;;5047560;28;20378;-67
2022/08/16 04:27:31;;;;;;;37.42;25.88;;;17.60;99.90;;;;;;5049929;28;20495;-67
2022/08/16 04:29:56;;;;;;;30.77;24.45;;;17.50;99.90;;;;;;5043178;28;20049;-67
2022/08/16 04:32:23;;;;;;;36.15;26.60;;;17.50;99.90;;;;;;5044906;28;20434;-67
2022/08/16 04:34:49;;;;;;;35.80;25.65;;;17.40;99.90;;;;;;5047352;28;20025;-66
2022/08/16 04:37:14;;;;;;;42.10;25.70;;;17.40;99.90;;;;;;5048560;28;20476;-66
2022/08/16 04:43:21;;;;;;;31.48;24.65;;;17.50;99.90;;;;;;5048677;28;20126;-67
2022/08/16 04:45:46;;;;;;;38.88;26.17;;;17.50;99.90;;;;;;5043096;28;20587;-67
2022/08/16 04:48:12;;;;;;;32.60;24.80;;;17.50;99.90;;;;;;5043285;28;20481;-67
2022/08/16 04:50:38;;;;;;;35.40;25.35;;;17.50;99.90;;;;;;5046655;28;20060;-66
2022/08/16 04:53:03;;;;;;;35.17;24.92;;;17.50;99.90;;;;;;5050297;28;20171;-67
2022/08/16 04:55:30;;;;;;;38.95;26.08;;;17.50;99.90;;;;;;5047120;28;20425;-67
2022/08/16 04:57:56;;;;;;;36.17;26.02;;;17.50;99.90;;;;;;5045749;28;20033;-66
2022/08/16 05:00:30;;;;;;;37.05;26.08;;;17.60;99.90;;;;;;5047150;28;20664;-67
2022/08/16 05:02:56;;;;;;;35.97;26.02;;;17.50;99.90;;;;;;5048193;28;20040;-66
2022/08/16 05:05:22;;;;;;;38.88;27.75;;;17.60;99.90;;;;;;5047420;28;20422;-66
2022/08/16 05:07:48;;;;;;;35.72;25.70;;;17.70;99.90;;;;;;5048597;28;20052;-67
2022/08/16 05:10:14;;;;;;;38.65;26.70;;;17.70;99.90;;;;;;5046225;28;20058;-66
2022/08/16 05:12:40;;;;;;;39.92;28.00;;;17.60;99.90;;;;;;5042776;28;20524;-66
2022/08/16 05:15:07;;;;;;;42.90;27.85;;;17.70;99.90;;;;;;5042536;28;20071;-66
2022/08/16 05:17:33;;;;;;;42.63;27.38;;;17.80;99.90;;;;;;5039875;28;20052;-66
2022/08/16 05:19:59;;;;;;;40.35;27.85;;;17.80;99.90;;;;;;5041234;28;20037;-66
2022/08/16 05:22:25;;;;;;;38.10;27.13;;;17.80;99.90;;;;;;5046009;28;20048;-67
2022/08/16 05:24:52;;;;;;;43.63;28.65;;;18.00;99.90;;;;;;5041814;28;20044;-66
2022/08/16 05:27:18;;;;;;;38.22;28.10;;;18.00;99.90;;;;;;5039235;28;20485;-66
2022/08/16 05:29:43;;;;;;;39.85;28.02;;;18.00;99.90;;;;;;5044810;28;20109;-66
2022/08/16 05:32:16;;;;;;;37.70;27.27;;;18.00;99.90;;;;;;5040578;28;20053;-67
2022/08/16 05:34:42;;;;;;;38.75;26.52;;;18.10;99.90;;;;;;5052849;28;20041;-66
2022/08/16 05:37:07;;;;;;;40.38;28.55;;;18.10;99.90;;;;;;5044909;28;20526;-67
2022/08/16 05:39:33;;;;;;;39.25;27.58;;;18.20;99.90;;;;;;5040137;28;20169;-67
2022/08/16 05:41:59;;;;;;;42.78;26.83;;;18.30;99.90;;;;;;5044102;28;20041;-66
2022/08/16 05:44:24;;;;;;;39.05;28.08;;;18.30;99.90;;;;;;5042093;28;20090;-67
2022/08/16 05:46:58;;;;;;;38.10;27.02;;;18.30;99.90;;;;;;5041237;28;20045;-67
2022/08/16 05:49:25;;;;;;;39.40;27.40;;;18.40;99.90;;;;;;5043712;28;20033;-67
2022/08/16 05:51:53;;;;;;;37.20;26.23;;;18.40;99.90;;;;;;5057984;28;20049;-67
2022/08/16 05:54:19;;;;;;;37.03;25.83;;;18.50;99.90;;;;;;5042753;28;20044;-66
2022/08/16 05:56:45;;;;;;;42.47;27.88;;;18.50;99.90;;;;;;5041887;28;20048;-67
2022/08/16 05:59:13;;;;;;;42.90;25.33;;;18.50;99.90;;;;;;5040802;28;20064;-66
2022/08/16 06:01:40;;;;;;;36.67;25.90;;;18.70;99.90;;;;;;5043261;28;20095;-66
2022/08/16 06:04:07;;;;;;;36.25;25.33;;;18.70;99.90;;;;;;5044356;28;20044;-67
2022/08/16 06:06:33;;;;;;;35.85;25.38;;;18.80;99.90;;;;;;5036158;28;20037;-66
2022/08/16 06:08:59;;;;;;;35.97;24.83;;;18.80;99.90;;;;;;5043823;28;20045;-66
2022/08/16 06:11:24;;;;;;;36.75;27.20;;;18.80;99.90;;;;;;5044111;28;20040;-67
2022/08/16 06:13:50;;;;;;;33.80;25.58;;;18.90;99.90;;;;;;5043673;28;20136;-67
2022/08/16 06:16:16;;;;;;;37.70;26.13;;;18.90;99.90;;;;;;5047177;28;20040;-67
2022/08/16 06:18:43;;;;;;;37.35;26.13;;;18.90;99.90;;;;;;5050399;28;20080;-67
2022/08/16 06:21:10;;;;;;;34.28;24.17;;;19.00;99.90;;;;;;5048698;28;20079;-67
2022/08/16 06:23:37;;;;;;;39.33;25.65;;;19.00;99.90;;;;;;5033935;28;20191;-66
2022/08/16 06:26:04;;;;;;;35.17;23.50;;;19.10;99.90;;;;;;5052704;28;20048;-66
2022/08/16 06:28:30;;;;;;;35.03;26.20;;;19.20;99.90;;;;;;5053744;28;20128;-66
2022/08/16 06:30:56;;;;;;;35.83;24.58;;;19.30;99.90;;;;;;5053294;28;20041;-66
2022/08/16 06:33:23;;;;;;;32.97;25.02;;;19.40;99.90;;;;;;5053617;28;20048;-66
2022/08/16 06:35:51;;;;;;;33.13;25.20;;;19.60;99.90;;;;;;5053732;28;20044;-66
2022/08/16 06:38:17;;;;;;;36.38;26.63;;;19.80;99.90;;;;;;5046066;28;20037;-66
2022/08/16 06:40:44;;;;;;;35.00;25.42;;;19.90;99.90;;;;;;5060024;28;20073;-66
2022/08/16 06:43:10;;;;;;;38.55;25.30;;;20.10;99.90;;;;;;5050285;28;20041;-66
2022/08/16 06:45:36;;;;;;;31.40;24.05;;;20.20;99.90;;;;;;5050710;28;20494;-67
2022/08/16 06:48:03;;;;;;;32.90;24.48;;;20.30;99.90;;;;;;5045510;28;20041;-67
2022/08/16 06:50:29;;;;;;;35.88;24.75;;;20.50;99.90;;;;;;5031052;28;20055;-67
2022/08/16 06:52:55;;;;;;;35.75;25.95;;;20.70;99.90;;;;;;5048063;28;20041;-66
2022/08/16 06:55:21;;;;;;;35.70;26.20;;;20.80;99.90;;;;;;5065306;28;20052;-68
2022/08/16 06:57:46;;;;;;;38.17;28.13;;;20.90;99.90;;;;;;5048505;28;20048;-67
2022/08/16 07:00:13;;;;;;;35.72;27.20;;;20.90;99.90;;;;;;5046771;28;20029;-66
2022/08/16 07:02:40;;;;;;;39.25;28.45;;;20.90;99.90;;;;;;5045705;28;20756;-68
2022/08/16 07:05:07;;;;;;;38.35;29.15;;;21.10;99.90;;;;;;5063229;28;20266;-68
2022/08/16 07:07:33;;;;;;;45.55;29.88;;;21.20;99.90;;;;;;5044029;28;20052;-69
2022/08/16 07:09:59;;;;;;;41.58;30.23;;;21.30;99.90;;;;;;5034024;28;20086;-69
2022/08/16 07:12:24;;;;;;;43.67;30.67;;;21.50;99.90;;;;;;5056742;28;20568;-71
2022/08/16 07:14:50;;;;;;;43.95;31.00;;;21.50;99.90;;;;;;5052130;28;20041;-69
2022/08/16 07:17:18;;;;;;;43.65;31.38;;;21.60;99.90;;;;;;5050964;28;20033;-70
2022/08/16 07:19:44;;;;;;;42.80;32.35;;;21.60;99.90;;;;;;5051485;28;20084;-69
2022/08/16 07:22:09;;;;;;;46.65;32.95;;;21.60;99.90;;;;;;5051402;28;20068;-70
2022/08/16 07:24:35;;;;;;;47.65;32.38;;;21.50;99.90;;;;;;5051398;28;20503;-70
2022/08/16 07:27:01;;;;;;;51.45;34.67;;;21.60;99.90;;;;;;5052053;28;20045;-69
2022/08/16 07:29:28;;;;;;;49.53;34.97;;;21.60;99.90;;;;;;5031342;28;20045;-70
2022/08/16 07:31:54;;;;;;;51.17;36.30;;;21.70;99.90;;;;;;5055569;28;20041;-72
2022/08/16 07:34:19;;;;;;;49.55;35.65;;;21.80;99.90;;;;;;5051139;28;20099;-71
2022/08/16 07:36:45;;;;;;;51.75;36.40;;;21.90;99.90;;;;;;5050070;28;20124;-72
2022/08/16 07:39:12;;;;;;;44.83;32.92;;;22.00;99.90;;;;;;5051305;28;20468;-73
2022/08/16 07:41:38;;;;;;;44.28;32.85;;;22.10;99.90;;;;;;5051152;28;20391;-71
2022/08/16 07:44:04;;;;;;;38.72;28.70;;;22.10;99.90;;;;;;5051875;28;20040;-70
2022/08/16 07:46:30;;;;;;;36.20;27.35;;;22.20;99.90;;;;;;5050003;28;20436;-70
2022/08/16 07:48:56;;;;;;;38.63;28.10;;;22.20;99.90;;;;;;5050242;28;20044;-72
2022/08/16 07:51:22;;;;;;;35.00;26.20;;;22.20;99.90;;;;;;5050904;28;20041;-70
2022/08/16 07:53:50;;;;;;;36.13;27.98;;;22.20;99.90;;;;;;5050573;28;20396;-71
2022/08/16 07:56:17;;;;;;;36.55;27.77;;;22.20;99.90;;;;;;5050510;28;20657;-71
2022/08/16 07:58:43;;;;;;;38.45;28.20;;;22.20;99.90;;;;;;5048818;28;20052;-70
2022/08/16 08:01:09;;;;;;;33.80;27.77;;;22.30;99.90;;;;;;5050932;28;20480;-70
2022/08/16 08:03:35;;;;;;;35.83;28.95;;;22.20;99.90;;;;;;5051378;28;20039;-69
2022/08/16 08:06:02;;;;;;;40.85;29.77;;;22.30;99.90;;;;;;5049050;28;20403;-68
2022/08/16 08:08:28;;;;;;;42.92;32.22;;;22.40;99.90;;;;;;5048946;28;20111;-70
2022/08/16 08:10:54;;;;;;;46.42;31.80;;;22.40;99.90;;;;;;5046947;28;20049;-70
2022/08/16 08:13:21;;;;;;;43.97;32.33;;;22.40;99.90;;;;;;5037032;28;20135;-70
2022/08/16 08:15:46;;;;;;;42.83;31.08;;;22.50;99.90;;;;;;5043941;28;20365;-71
2022/08/16 08:18:12;;;;;;;43.15;32.90;;;22.50;99.90;;;;;;5045997;28;20082;-70
2022/08/16 08:20:43;;;;;;;39.35;30.08;;;22.50;99.90;;;;;;5045475;28;20391;-70
2022/08/16 08:23:11;;;;;;;42.50;30.70;;;22.60;99.90;;;;;;5063080;28;20044;-70
2022/08/16 08:25:38;;;;;;;38.83;30.73;;;22.70;99.90;;;;;;5042975;28;20045;-71
2022/08/16 08:28:04;;;;;;;40.83;31.27;;;22.90;99.90;;;;;;5044743;28;20487;-71
2022/08/16 08:30:31;;;;;;;40.63;30.63;;;22.90;99.90;;;;;;5026690;28;20045;-70
2022/08/16 08:32:57;;;;;;;33.08;27.15;;;23.00;99.90;;;;;;5059044;28;20041;-71
2022/08/16 08:35:23;;;;;;;34.55;27.30;;;23.10;99.90;;;;;;5045151;28;20039;-71
2022/08/16 08:37:48;;;;;;;33.67;26.08;;;23.20;99.90;;;;;;5061079;28;20029;-70
2022/08/16 08:40:15;;;;;;;35.13;26.67;;;23.20;99.90;;;;;;5044486;28;20106;-71
2022/08/16 08:42:42;;;;;;;34.17;26.42;;;23.20;99.90;;;;;;5042290;28;20036;-70
2022/08/16 08:45:09;;;;;;;35.90;26.17;;;23.30;99.90;;;;;;5045649;28;20095;-71
2022/08/16 08:47:35;;;;;;;37.40;24.80;;;23.40;99.90;;;;;;5042573;28;20048;-72
2022/08/16 08:50:03;;;;;;;30.25;24.27;;;23.50;99.90;;;;;;5041666;28;20042;-71
2022/08/16 08:52:29;;;;;;;29.27;24.35;;;23.50;99.90;;;;;;5044289;28;20064;-72
2022/08/16 08:54:54;;;;;;;31.80;25.15;;;23.60;99.90;;;;;;5045636;28;20056;-72
2022/08/16 08:57:20;;;;;;;34.75;26.13;;;23.70;99.90;;;;;;5045074;28;20056;-70
2022/08/16 08:59:46;;;;;;;34.33;25.77;;;23.70;99.90;;;;;;5046749;28;20072;-71
2022/08/16 09:02:13;;;;;;;31.20;26.00;;;23.70;99.90;;;;;;5043356;28;20123;-71
2022/08/16 09:04:39;;;;;;;32.05;24.98;;;23.80;99.90;;;;;;5046090;28;20041;-72
2022/08/16 09:07:04;;;;;;;33.42;27.35;;;23.80;99.90;;;;;;5046361;28;20604;-68
2022/08/16 09:09:31;;;;;;;32.13;26.05;;;23.90;99.90;;;;;;5049764;28;20136;-72
2022/08/16 09:11:56;;;;;;;32.38;25.55;;;24.00;99.90;;;;;;5049405;28;20048;-69
2022/08/16 09:14:23;;;;;;;28.58;23.65;;;24.00;99.90;;;;;;5047643;28;20518;-70
2022/08/16 09:16:50;;;;;;;33.22;24.50;;;24.00;99.90;;;;;;5047245;28;20124;-68
2022/08/16 09:19:16;;;;;;;28.40;22.45;;;24.00;99.90;;;;;;5045277;28;20041;-72
2022/08/16 09:21:41;;;;;;;27.67;23.75;;;24.20;99.90;;;;;;5046988;28;20467;-73
2022/08/16 09:24:07;;;;;;;26.67;21.00;;;24.20;99.90;;;;;;5047279;28;20546;-70
2022/08/16 09:26:33;;;;;;;28.10;21.77;;;24.30;99.90;;;;;;5046425;28;20079;-71
2022/08/16 09:28:59;;;;;;;27.52;21.20;;;24.30;99.90;;;;;;5048681;28;20544;-71
2022/08/16 09:31:24;;;;;;;26.17;21.20;;;24.40;99.90;;;;;;5048580;28;20052;-72
2022/08/16 09:33:51;;;;;;;25.27;20.25;;;24.40;99.90;;;;;;5048686;28;20052;-70
2022/08/16 09:36:17;;;;;;;28.20;22.77;;;24.40;99.90;;;;;;5046344;28;20053;-70
2022/08/16 09:38:44;;;;;;;29.45;23.83;;;24.50;99.90;;;;;;5048194;28;20045;-71
2022/08/16 09:41:10;;;;;;;26.23;22.13;;;24.60;99.90;;;;;;5044616;28;20233;-72
2022/08/16 09:43:37;;;;;;;32.10;25.75;;;24.60;99.90;;;;;;5058352;28;20049;-71
2022/08/16 09:46:06;;;;;;;28.13;19.45;;;24.70;99.90;;;;;;5044395;28;20033;-72
2022/08/16 09:48:32;;;;;;;19.52;15.77;;;24.80;99.90;;;;;;5044697;28;20396;-71
2022/08/16 09:50:58;;;;;;;19.40;16.48;;;24.90;99.90;;;;;;5045297;28;20505;-74
2022/08/16 09:53:25;;;;;;;22.60;16.92;;;24.90;99.90;;;;;;5058423;28;20091;-72
2022/08/16 09:55:54;;;;;;;20.63;16.35;;;25.00;99.90;;;;;;5046386;28;20120;-72
2022/08/16 09:58:22;;;;;;;23.48;16.70;;;25.10;99.90;;;;;;5045828;28;20044;-73
2022/08/16 10:00:49;;;;;;;16.80;13.07;;;25.20;99.90;;;;;;5052589;28;20037;-70
2022/08/16 10:03:15;;;;;;;18.13;10.15;;;25.30;99.90;;;;;;5049920;28;20051;-73
2022/08/16 10:05:41;;;;;;;12.85;9.52;;;25.40;99.90;;;;;;5048777;28;20044;-69
2022/08/16 10:08:07;;;;;;;8.68;7.80;;;25.50;99.90;;;;;;5045556;28;20122;-69
2022/08/16 10:10:34;;;;;;;10.88;8.52;;;25.40;99.90;;;;;;5045500;28;20431;-70
2022/08/16 10:13:13;;;;;;;10.75;8.30;;;25.50;99.90;;;;;;5052368;28;20052;-74
2022/08/16 10:15:41;;;;;;;8.48;7.65;;;25.50;99.90;;;;;;5052337;28;20041;-71
2022/08/16 10:18:08;;;;;;;12.10;7.80;;;25.60;99.90;;;;;;5052501;28;20110;-70
2022/08/16 10:20:41;;;;;;;11.85;8.88;;;25.70;99.90;;;;;;5052715;28;20491;-70
2022/08/16 10:23:10;;;;;;;11.32;9.30;;;25.80;99.90;;;;;;5052280;28;20598;-73
2022/08/16 10:25:39;;;;;;;12.52;9.43;;;25.80;99.90;;;;;;5051978;28;20111;-71
2022/08/16 10:28:05;;;;;;;10.88;9.07;;;25.90;99.90;;;;;;5050272;28;20098;-69
2022/08/16 10:30:31;;;;;;;10.88;9.35;;;26.00;99.90;;;;;;5051868;28;20048;-70
2022/08/16 10:32:57;;;;;;;11.90;9.20;;;26.10;99.90;;;;;;5052092;28;20045;-71
2022/08/16 10:35:23;;;;;;;12.52;8.88;;;26.20;99.90;;;;;;5061701;28;20468;-73
2022/08/16 10:37:49;;;;;;;10.32;9.18;;;26.30;99.90;;;;;;5051412;28;20033;-71
2022/08/16 10:40:15;;;;;;;9.77;7.88;;;26.40;99.90;;;;;;5051104;28;20122;-70
2022/08/16 10:42:41;;;;;;;10.50;8.75;;;26.40;99.90;;;;;;5066621;28;20110;-71
2022/08/16 10:45:07;;;;;;;11.02;7.05;;;26.40;99.90;;;;;;5052199;28;20033;-72
2022/08/16 10:47:34;;;;;;;7.95;7.15;;;26.50;99.90;;;;;;5051283;28;20163;-73
2022/08/16 10:50:00;;;;;;;9.90;7.53;;;26.50;99.70;;;;;;5051649;28;20059;-73
2022/08/16 10:52:26;;;;;;;10.30;5.80;;;26.60;99.90;;;;;;5064099;28;20051;-69
2022/08/16 10:54:51;;;;;;;7.53;6.22;;;26.60;99.60;;;;;;5070838;28;20032;-70
2022/08/16 10:57:17;;;;;;;8.05;6.03;;;26.70;99.90;;;;;;5049723;28;20037;-69
2022/08/16 10:59:43;;;;;;;8.05;6.03;;;26.70;99.50;;;;;;5050890;28;20392;-72
2022/08/16 11:02:10;;;;;;;6.80;4.90;;;26.90;99.00;;;;;;5045655;28;20059;-71
2022/08/16 11:04:38;;;;;;;6.25;4.97;;;26.90;97.40;;;;;;5044443;28;20041;-72
2022/08/16 11:07:04;;;;;;;8.13;4.57;;;27.00;98.50;;;;;;5052483;28;20032;-70
2022/08/16 11:09:30;;;;;;;7.13;4.10;;;27.00;97.70;;;;;;5051023;28;20037;-71
2022/08/16 11:11:56;;;;;;;6.70;4.80;;;27.10;97.30;;;;;;5046961;28;20036;-71
2022/08/16 11:14:23;;;;;;;7.50;4.93;;;27.10;96.30;;;;;;5048688;28;20048;-71
2022/08/16 11:16:49;;;;;;;5.90;5.07;;;27.10;97.10;;;;;;5048988;28;20396;-71
2022/08/16 11:19:15;;;;;;;6.93;6.22;;;27.20;97.90;;;;;;5048324;28;20037;-71
2022/08/16 11:21:42;;;;;;;6.40;5.80;;;27.30;98.40;;;;;;5037298;28;20559;-70
2022/08/16 11:24:08;;;;;;;8.38;6.40;;;27.30;97.10;;;;;;5046677;28;20046;-69
2022/08/16 11:26:34;;;;;;;8.27;6.82;;;27.30;98.70;;;;;;5040615;28;20033;-72
2022/08/16 11:29:00;;;;;;;10.40;7.88;;;27.40;96.70;;;;;;5060717;28;20032;-74
2022/08/16 11:31:26;;;;;;;11.73;8.65;;;27.40;97.70;;;;;;5049939;28;20051;-71
2022/08/16 11:33:51;;;;;;;7.97;7.18;;;27.50;98.00;;;;;;5049395;28;20033;-73
2022/08/16 11:36:18;;;;;;;9.85;8.20;;;27.50;98.20;;;;;;5048586;28;20087;-71
2022/08/16 11:38:45;;;;;;;10.07;8.57;;;27.60;97.70;;;;;;5050996;28;20040;-70
2022/08/16 11:41:11;;;;;;;10.52;9.10;;;27.60;98.40;;;;;;5049246;28;20045;-69
2022/08/16 11:43:40;;;;;;;9.57;7.85;;;27.60;98.20;;;;;;5048451;28;20045;-72
2022/08/16 11:46:09;;;;;;;11.55;9.23;;;27.50;97.90;;;;;;5048681;28;20187;-70
2022/08/16 11:48:35;;;;;;;13.90;8.10;;;27.60;98.80;;;;;;5048930;28;20041;-69
2022/08/16 11:51:02;;;;;;;12.35;8.77;;;27.60;97.80;;;;;;5049733;28;20102;-71
2022/08/16 11:53:31;;;;;;;8.80;7.90;;;27.60;96.80;;;;;;5013215;28;1056792;-70
2022/08/16 11:55:57;;;;;;;9.02;8.10;;;27.60;97.50;;;;;;5050222;28;20052;-70
2022/08/16 11:58:24;;;;;;;13.30;9.77;;;27.70;99.00;;;;;;5048552;28;20037;-69
2022/08/16 12:00:51;;;;;;;9.63;8.32;;;27.80;98.60;;;;;;5048847;28;20434;-70
2022/08/16 12:03:17;;;;;;;10.00;7.97;;;27.90;97.50;;;;;;5050477;28;20091;-71
2022/08/16 12:05:44;;;;;;;10.35;8.45;;;27.90;98.00;;;;;;5033890;28;20413;-71
2022/08/16 12:08:11;;;;;;;11.52;7.95;;;27.90;98.00;;;;;;5048489;28;20239;-71
2022/08/16 12:10:38;;;;;;;9.88;7.32;;;28.10;97.90;;;;;;5050253;28;20095;-71
2022/08/16 12:13:06;;;;;;;10.57;8.25;;;28.10;98.50;;;;;;5049867;28;20148;-70
2022/08/16 12:15:32;;;;;;;11.68;9.32;;;28.10;98.40;;;;;;5048271;28;20029;-69
2022/08/16 12:17:58;;;;;;;9.80;8.85;;;28.20;98.00;;;;;;5049984;28;20037;-70
2022/08/16 12:20:31;;;;;;;11.75;9.30;;;28.10;97.20;;;;;;5051366;28;20120;-69
2022/08/16 12:22:57;;;;;;;10.60;9.40;;;27.80;96.80;;;;;;5048572;28;20111;-69
2022/08/16 12:25:25;;;;;;;12.55;10.23;;;27.50;96.70;;;;;;5050022;28;20040;-70
2022/08/16 12:27:52;;;;;;;9.15;7.68;;;27.50;98.40;;;;;;5061395;28;20037;-69
2022/08/16 12:30:24;;;;;;;11.25;7.78;;;27.60;97.80;;;;;;5032190;28;20055;-71
2022/08/16 12:32:50;;;;;;;8.18;7.38;;;27.70;98.20;;;;;;5046945;28;20280;-70
2022/08/16 12:35:18;;;;;;;7.00;6.30;;;27.90;97.50;;;;;;5050625;28;20037;-72
2022/08/16 12:37:45;;;;;;;7.32;6.57;;;27.80;96.50;;;;;;5046718;28;20040;-71